sensor_id;sensor_type;location;lat;lon;timestamp;temperature;humidity
16305;DHT22;8261;47.678;-122.174;2022-08-01T00:01:22;35.80;80.40
16305;DHT22;8261;47.678;-122.174;2022-08-01T00:03:55;36.20;82.30
16305;DHT22;8261;47.678;-122.174;2022-08-01T00:06:27;36.30;81.00
16305;DHT22;8261;47.678;-122.174;2022-08-01T00:09:19;36.60;82.30
16305;DHT22;8261;47.678;-122.174;2022-08-01T00:11:51;36.80;82.20
16305;DHT22;8261;47.678;-122.174;2022-08-01T00:14:30;36.90;80.40
16305;DHT22;8261;47.678;-122.174;2022-08-01T00:17:03;37.10;79.40
16305;DHT22;8261;47.678;-122.174;2022-08-01T00:19:37;37.00;76.80
16305;DHT22;8261;47.678;-122.174;2022-08-01T00:22:09;36.80;76.80
16305;DHT22;8261;47.678;-122.174;2022-08-01T00:24:55;36.70;77.70
16305;DHT22;8261;47.678;-122.174;2022-08-01T00:27:27;36.80;78.10
16305;DHT22;8261;47.678;-122.174;2022-08-01T00:30:08;36.90;77.40
16305;DHT22;8261;47.678;-122.174;2022-08-01T00:32:42;36.90;77.50
16305;DHT22;8261;47.678;-122.174;2022-08-01T00:35:14;37.10;77.70
16305;DHT22;8261;47.678;-122.174;2022-08-01T00:37:46;36.90;76.40
16305;DHT22;8261;47.678;-122.174;2022-08-01T00:40:33;36.70;78.60
16305;DHT22;8261;47.678;-122.174;2022-08-01T00:53:55;36.50;75.80
16305;DHT22;8261;47.678;-122.174;2022-08-01T00:56:27;36.50;76.20
16305;DHT22;8261;47.678;-122.174;2022-08-01T00:59:04;36.40;74.60
16305;DHT22;8261;47.678;-122.174;2022-08-01T01:01:37;36.30;74.10
16305;DHT22;8261;47.678;-122.174;2022-08-01T01:04:13;36.20;74.80
16305;DHT22;8261;47.678;-122.174;2022-08-01T01:06:54;36.10;76.90
16305;DHT22;8261;47.678;-122.174;2022-08-01T01:09:34;35.90;75.60
16305;DHT22;8261;47.678;-122.174;2022-08-01T01:12:18;36.10;75.70
16305;DHT22;8261;47.678;-122.174;2022-08-01T01:15:00;36.30;74.70
16305;DHT22;8261;47.678;-122.174;2022-08-01T01:17:53;36.70;72.60
16305;DHT22;8261;47.678;-122.174;2022-08-01T01:20:30;37.10;71.70
16305;DHT22;8261;47.678;-122.174;2022-08-01T01:23:44;37.80;72.10
16305;DHT22;8261;47.678;-122.174;2022-08-01T01:26:36;38.00;68.10
16305;DHT22;8261;47.678;-122.174;2022-08-01T01:29:17;37.90;71.30
16305;DHT22;8261;47.678;-122.174;2022-08-01T01:32:06;38.10;73.10
16305;DHT22;8261;47.678;-122.174;2022-08-01T01:34:42;37.90;73.30
16305;DHT22;8261;47.678;-122.174;2022-08-01T01:37:16;38.10;74.10
16305;DHT22;8261;47.678;-122.174;2022-08-01T01:39:50;38.20;73.40
16305;DHT22;8261;47.678;-122.174;2022-08-01T01:42:32;38.20;73.80
16305;DHT22;8261;47.678;-122.174;2022-08-01T01:45:34;38.00;72.90
16305;DHT22;8261;47.678;-122.174;2022-08-01T01:48:28;38.10;74.00
16305;DHT22;8261;47.678;-122.174;2022-08-01T01:51:09;38.00;69.00
16305;DHT22;8261;47.678;-122.174;2022-08-01T01:54:03;37.90;67.80
16305;DHT22;8261;47.678;-122.174;2022-08-01T01:56:43;37.60;68.60
16305;DHT22;8261;47.678;-122.174;2022-08-01T01:59:21;37.20;70.30
16305;DHT22;8261;47.678;-122.174;2022-08-01T02:01:59;36.80;69.20
16305;DHT22;8261;47.678;-122.174;2022-08-01T02:04:37;36.00;72.20
16305;DHT22;8261;47.678;-122.174;2022-08-01T02:07:10;35.50;73.00
16305;DHT22;8261;47.678;-122.174;2022-08-01T02:09:43;35.20;74.40
16305;DHT22;8261;47.678;-122.174;2022-08-01T02:12:19;34.70;76.10
16305;DHT22;8261;47.678;-122.174;2022-08-01T02:14:52;34.10;77.90
16305;DHT22;8261;47.678;-122.174;2022-08-01T02:17:30;33.60;80.40
16305;DHT22;8261;47.678;-122.174;2022-08-01T02:20:03;33.20;81.20
16305;DHT22;8261;47.678;-122.174;2022-08-01T02:22:36;33.00;82.80
16305;DHT22;8261;47.678;-122.174;2022-08-01T02:25:14;32.80;84.00
16305;DHT22;8261;47.678;-122.174;2022-08-01T02:27:56;32.70;84.20
16305;DHT22;8261;47.678;-122.174;2022-08-01T02:30:34;32.50;87.30
16305;DHT22;8261;47.678;-122.174;2022-08-01T02:33:14;32.40;86.20
16305;DHT22;8261;47.678;-122.174;2022-08-01T02:35:48;32.20;87.00
16305;DHT22;8261;47.678;-122.174;2022-08-01T02:38:43;32.00;90.10
16305;DHT22;8261;47.678;-122.174;2022-08-01T02:41:20;31.80;90.30
16305;DHT22;8261;47.678;-122.174;2022-08-01T02:43:55;31.60;90.00
16305;DHT22;8261;47.678;-122.174;2022-08-01T02:46:31;31.50;90.40
16305;DHT22;8261;47.678;-122.174;2022-08-01T02:49:08;31.30;91.50
16305;DHT22;8261;47.678;-122.174;2022-08-01T02:51:40;31.20;91.60
16305;DHT22;8261;47.678;-122.174;2022-08-01T02:54:14;31.00;91.00
16305;DHT22;8261;47.678;-122.174;2022-08-01T02:56:49;30.90;91.80
16305;DHT22;8261;47.678;-122.174;2022-08-01T02:59:22;30.70;93.10
16305;DHT22;8261;47.678;-122.174;2022-08-01T03:01:57;30.50;93.90
16305;DHT22;8261;47.678;-122.174;2022-08-01T03:04:34;30.40;94.10
16305;DHT22;8261;47.678;-122.174;2022-08-01T03:07:08;30.30;94.30
16305;DHT22;8261;47.678;-122.174;2022-08-01T03:09:42;30.10;94.10
16305;DHT22;8261;47.678;-122.174;2022-08-01T03:12:17;30.10;93.70
16305;DHT22;8261;47.678;-122.174;2022-08-01T03:14:51;30.00;93.80
16305;DHT22;8261;47.678;-122.174;2022-08-01T03:17:25;29.90;94.30
16305;DHT22;8261;47.678;-122.174;2022-08-01T03:20:03;29.80;94.70
16305;DHT22;8261;47.678;-122.174;2022-08-01T03:22:35;29.70;95.00
16305;DHT22;8261;47.678;-122.174;2022-08-01T03:25:09;29.60;95.50
16305;DHT22;8261;47.678;-122.174;2022-08-01T03:27:42;29.60;95.10
16305;DHT22;8261;47.678;-122.174;2022-08-01T03:30:14;29.50;94.10
16305;DHT22;8261;47.678;-122.174;2022-08-01T03:32:46;29.40;94.10
16305;DHT22;8261;47.678;-122.174;2022-08-01T03:40:54;29.10;94.10
16305;DHT22;8261;47.678;-122.174;2022-08-01T03:46:06;28.90;92.30
16305;DHT22;8261;47.678;-122.174;2022-08-01T03:48:55;28.80;94.10
16305;DHT22;8261;47.678;-122.174;2022-08-01T03:51:41;28.60;92.10
16305;DHT22;8261;47.678;-122.174;2022-08-01T03:54:35;28.50;91.00
16305;DHT22;8261;47.678;-122.174;2022-08-01T04:01:01;27.70;93.80
16305;DHT22;8261;47.678;-122.174;2022-08-01T04:03:44;27.40;94.80
16305;DHT22;8261;47.678;-122.174;2022-08-01T04:06:31;27.30;93.20
16305;DHT22;8261;47.678;-122.174;2022-08-01T04:09:17;27.20;92.10
16305;DHT22;8261;47.678;-122.174;2022-08-01T04:11:58;27.20;93.20
16305;DHT22;8261;47.678;-122.174;2022-08-01T04:14:39;27.10;94.20
16305;DHT22;8261;47.678;-122.174;2022-08-01T04:17:35;27.00;95.10
16305;DHT22;8261;47.678;-122.174;2022-08-01T04:20:07;26.90;94.90
16305;DHT22;8261;47.678;-122.174;2022-08-01T04:22:40;26.80;94.60
16305;DHT22;8261;47.678;-122.174;2022-08-01T04:25:17;26.70;94.20
16305;DHT22;8261;47.678;-122.174;2022-08-01T04:27:53;26.60;95.10
16305;DHT22;8261;47.678;-122.174;2022-08-01T04:30:29;26.50;96.00
16305;DHT22;8261;47.678;-122.174;2022-08-01T04:33:05;26.40;95.60
16305;DHT22;8261;47.678;-122.174;2022-08-01T04:35:46;26.40;95.40
16305;DHT22;8261;47.678;-122.174;2022-08-01T04:46:29;26.10;96.60
16305;DHT22;8261;47.678;-122.174;2022-08-01T04:49:05;26.10;97.00
16305;DHT22;8261;47.678;-122.174;2022-08-01T04:51:50;26.00;97.40
16305;DHT22;8261;47.678;-122.174;2022-08-01T04:54:26;25.90;97.00
16305;DHT22;8261;47.678;-122.174;2022-08-01T04:57:12;25.80;96.90
16305;DHT22;8261;47.678;-122.174;2022-08-01T04:59:44;25.80;98.00
16305;DHT22;8261;47.678;-122.174;2022-08-01T05:02:18;25.70;97.80
16305;DHT22;8261;47.678;-122.174;2022-08-01T05:04:52;25.60;98.90
16305;DHT22;8261;47.678;-122.174;2022-08-01T05:07:23;25.50;99.10
16305;DHT22;8261;47.678;-122.174;2022-08-01T05:09:55;25.50;99.10
16305;DHT22;8261;47.678;-122.174;2022-08-01T05:12:26;25.50;99.10
16305;DHT22;8261;47.678;-122.174;2022-08-01T05:14:59;25.40;99.40
16305;DHT22;8261;47.678;-122.174;2022-08-01T05:17:31;25.30;99.90
16305;DHT22;8261;47.678;-122.174;2022-08-01T05:20:05;25.30;99.90
16305;DHT22;8261;47.678;-122.174;2022-08-01T05:22:37;25.30;99.90
16305;DHT22;8261;47.678;-122.174;2022-08-01T05:25:08;25.20;99.90
16305;DHT22;8261;47.678;-122.174;2022-08-01T05:27:47;25.10;99.90
16305;DHT22;8261;47.678;-122.174;2022-08-01T05:30:20;25.00;99.90
16305;DHT22;8261;47.678;-122.174;2022-08-01T05:32:53;24.90;99.90
16305;DHT22;8261;47.678;-122.174;2022-08-01T05:35:28;24.90;99.90
16305;DHT22;8261;47.678;-122.174;2022-08-01T05:38:16;24.80;99.90
16305;DHT22;8261;47.678;-122.174;2022-08-01T05:40:48;24.70;99.90
16305;DHT22;8261;47.678;-122.174;2022-08-01T05:43:19;24.70;99.90
16305;DHT22;8261;47.678;-122.174;2022-08-01T05:45:55;24.60;99.90
16305;DHT22;8261;47.678;-122.174;2022-08-01T05:48:27;24.60;99.90
16305;DHT22;8261;47.678;-122.174;2022-08-01T05:51:01;24.50;99.90
16305;DHT22;8261;47.678;-122.174;2022-08-01T05:53:32;24.40;99.90
16305;DHT22;8261;47.678;-122.174;2022-08-01T05:56:04;24.40;99.90
16305;DHT22;8261;47.678;-122.174;2022-08-01T05:58:36;24.30;99.90
16305;DHT22;8261;47.678;-122.174;2022-08-01T06:01:07;24.30;99.90
16305;DHT22;8261;47.678;-122.174;2022-08-01T06:03:38;24.30;99.90
16305;DHT22;8261;47.678;-122.174;2022-08-01T06:06:19;24.20;99.90
16305;DHT22;8261;47.678;-122.174;2022-08-01T06:08:52;24.10;99.90
16305;DHT22;8261;47.678;-122.174;2022-08-01T06:11:23;24.10;99.90
16305;DHT22;8261;47.678;-122.174;2022-08-01T06:14:03;24.10;99.90
16305;DHT22;8261;47.678;-122.174;2022-08-01T06:16:35;24.10;99.90
16305;DHT22;8261;47.678;-122.174;2022-08-01T06:19:14;24.10;99.90
16305;DHT22;8261;47.678;-122.174;2022-08-01T06:21:50;24.10;99.90
16305;DHT22;8261;47.678;-122.174;2022-08-01T06:24:21;24.10;99.90
16305;DHT22;8261;47.678;-122.174;2022-08-01T06:26:53;24.10;99.90
16305;DHT22;8261;47.678;-122.174;2022-08-01T06:29:25;24.10;99.90
16305;DHT22;8261;47.678;-122.174;2022-08-01T06:31:57;24.00;99.90
16305;DHT22;8261;47.678;-122.174;2022-08-01T06:34:30;24.00;99.90
16305;DHT22;8261;47.678;-122.174;2022-08-01T06:37:04;24.00;99.90
16305;DHT22;8261;47.678;-122.174;2022-08-01T06:39:35;23.90;99.90
16305;DHT22;8261;47.678;-122.174;2022-08-01T06:42:07;23.90;99.90
16305;DHT22;8261;47.678;-122.174;2022-08-01T06:44:40;23.80;99.90
16305;DHT22;8261;47.678;-122.174;2022-08-01T06:47:11;23.70;99.90
16305;DHT22;8261;47.678;-122.174;2022-08-01T06:49:43;23.80;99.90
16305;DHT22;8261;47.678;-122.174;2022-08-01T06:52:19;23.70;99.90
16305;DHT22;8261;47.678;-122.174;2022-08-01T06:54:50;23.70;99.90
16305;DHT22;8261;47.678;-122.174;2022-08-01T06:57:22;23.70;99.90
16305;DHT22;8261;47.678;-122.174;2022-08-01T06:59:53;23.60;99.90
16305;DHT22;8261;47.678;-122.174;2022-08-01T07:02:26;23.60;99.90
16305;DHT22;8261;47.678;-122.174;2022-08-01T07:04:57;23.50;99.90
16305;DHT22;8261;47.678;-122.174;2022-08-01T07:07:32;23.40;99.90
16305;DHT22;8261;47.678;-122.174;2022-08-01T07:10:08;23.30;99.90
16305;DHT22;8261;47.678;-122.174;2022-08-01T07:12:40;23.30;99.90
16305;DHT22;8261;47.678;-122.174;2022-08-01T07:15:12;23.20;99.90
16305;DHT22;8261;47.678;-122.174;2022-08-01T07:17:44;23.20;99.90
16305;DHT22;8261;47.678;-122.174;2022-08-01T07:20:15;23.20;99.90
16305;DHT22;8261;47.678;-122.174;2022-08-01T07:22:52;23.10;99.90
16305;DHT22;8261;47.678;-122.174;2022-08-01T07:25:26;23.10;99.90
16305;DHT22;8261;47.678;-122.174;2022-08-01T07:27:58;23.00;99.90
16305;DHT22;8261;47.678;-122.174;2022-08-01T07:30:32;23.00;99.90
16305;DHT22;8261;47.678;-122.174;2022-08-01T07:33:04;22.90;99.90
16305;DHT22;8261;47.678;-122.174;2022-08-01T07:35:36;22.90;99.90
16305;DHT22;8261;47.678;-122.174;2022-08-01T07:38:13;22.80;99.90
16305;DHT22;8261;47.678;-122.174;2022-08-01T07:40:45;22.70;99.90
16305;DHT22;8261;47.678;-122.174;2022-08-01T07:43:18;22.60;99.90
16305;DHT22;8261;47.678;-122.174;2022-08-01T07:45:49;22.60;99.90
16305;DHT22;8261;47.678;-122.174;2022-08-01T07:48:21;22.50;99.90
16305;DHT22;8261;47.678;-122.174;2022-08-01T07:50:53;22.40;99.90
16305;DHT22;8261;47.678;-122.174;2022-08-01T07:53:27;22.40;99.90
16305;DHT22;8261;47.678;-122.174;2022-08-01T07:55:59;22.30;99.90
16305;DHT22;8261;47.678;-122.174;2022-08-01T07:58:31;22.30;99.90
16305;DHT22;8261;47.678;-122.174;2022-08-01T08:01:06;22.20;99.90
16305;DHT22;8261;47.678;-122.174;2022-08-01T08:03:38;22.10;99.90
16305;DHT22;8261;47.678;-122.174;2022-08-01T08:06:10;22.10;99.90
16305;DHT22;8261;47.678;-122.174;2022-08-01T08:08:43;22.00;99.90
16305;DHT22;8261;47.678;-122.174;2022-08-01T08:11:14;21.90;99.90
16305;DHT22;8261;47.678;-122.174;2022-08-01T08:13:46;21.90;99.90
16305;DHT22;8261;47.678;-122.174;2022-08-01T08:16:17;21.80;99.90
16305;DHT22;8261;47.678;-122.174;2022-08-01T08:18:49;21.80;99.90
16305;DHT22;8261;47.678;-122.174;2022-08-01T08:21:22;21.70;99.90
16305;DHT22;8261;47.678;-122.174;2022-08-01T08:23:56;21.70;99.90
16305;DHT22;8261;47.678;-122.174;2022-08-01T08:26:43;21.60;99.90
16305;DHT22;8261;47.678;-122.174;2022-08-01T08:29:19;21.60;99.90
16305;DHT22;8261;47.678;-122.174;2022-08-01T08:31:51;21.50;99.90
16305;DHT22;8261;47.678;-122.174;2022-08-01T08:34:33;21.50;99.90
16305;DHT22;8261;47.678;-122.174;2022-08-01T08:37:05;21.40;99.90
16305;DHT22;8261;47.678;-122.174;2022-08-01T08:39:39;21.40;99.90
16305;DHT22;8261;47.678;-122.174;2022-08-01T08:42:11;21.40;99.90
16305;DHT22;8261;47.678;-122.174;2022-08-01T08:44:44;21.30;99.90
16305;DHT22;8261;47.678;-122.174;2022-08-01T08:47:17;21.30;99.90
16305;DHT22;8261;47.678;-122.174;2022-08-01T08:49:53;21.10;99.90
16305;DHT22;8261;47.678;-122.174;2022-08-01T08:52:25;21.20;99.90
16305;DHT22;8261;47.678;-122.174;2022-08-01T08:55:01;21.10;99.90
16305;DHT22;8261;47.678;-122.174;2022-08-01T08:57:33;21.10;99.90
16305;DHT22;8261;47.678;-122.174;2022-08-01T09:00:06;21.00;99.90
16305;DHT22;8261;47.678;-122.174;2022-08-01T09:02:41;21.00;99.90
16305;DHT22;8261;47.678;-122.174;2022-08-01T09:05:15;21.00;99.90
16305;DHT22;8261;47.678;-122.174;2022-08-01T09:08:07;21.00;99.90
16305;DHT22;8261;47.678;-122.174;2022-08-01T09:10:41;21.00;99.90
16305;DHT22;8261;47.678;-122.174;2022-08-01T09:13:13;21.00;99.90
16305;DHT22;8261;47.678;-122.174;2022-08-01T09:15:47;20.90;99.90
16305;DHT22;8261;47.678;-122.174;2022-08-01T09:18:29;20.90;99.90
16305;DHT22;8261;47.678;-122.174;2022-08-01T09:21:11;20.90;99.90
16305;DHT22;8261;47.678;-122.174;2022-08-01T09:23:46;20.80;99.90
16305;DHT22;8261;47.678;-122.174;2022-08-01T09:26:29;20.80;99.90
16305;DHT22;8261;47.678;-122.174;2022-08-01T09:29:03;20.70;99.90
16305;DHT22;8261;47.678;-122.174;2022-08-01T09:31:41;20.70;99.90
16305;DHT22;8261;47.678;-122.174;2022-08-01T09:34:15;20.60;99.90
16305;DHT22;8261;47.678;-122.174;2022-08-01T09:36:48;20.60;99.90
16305;DHT22;8261;47.678;-122.174;2022-08-01T09:39:26;20.60;99.90
16305;DHT22;8261;47.678;-122.174;2022-08-01T09:42:01;20.60;99.90
16305;DHT22;8261;47.678;-122.174;2022-08-01T09:44:40;20.50;99.90
16305;DHT22;8261;47.678;-122.174;2022-08-01T09:47:22;20.50;99.90
16305;DHT22;8261;47.678;-122.174;2022-08-01T09:49:56;20.50;99.90
16305;DHT22;8261;47.678;-122.174;2022-08-01T09:52:34;20.50;99.90
16305;DHT22;8261;47.678;-122.174;2022-08-01T09:55:08;20.50;99.90
16305;DHT22;8261;47.678;-122.174;2022-08-01T09:57:54;20.50;99.90
16305;DHT22;8261;47.678;-122.174;2022-08-01T10:00:27;20.50;99.90
16305;DHT22;8261;47.678;-122.174;2022-08-01T10:03:22;20.50;99.90
16305;DHT22;8261;47.678;-122.174;2022-08-01T10:05:54;20.50;99.90
16305;DHT22;8261;47.678;-122.174;2022-08-01T10:08:26;20.50;99.90
16305;DHT22;8261;47.678;-122.174;2022-08-01T10:11:14;20.50;99.90
16305;DHT22;8261;47.678;-122.174;2022-08-01T10:13:48;20.60;99.90
16305;DHT22;8261;47.678;-122.174;2022-08-01T10:16:21;20.50;99.90
16305;DHT22;8261;47.678;-122.174;2022-08-01T10:18:57;20.50;99.90
16305;DHT22;8261;47.678;-122.174;2022-08-01T10:21:31;20.60;99.90
16305;DHT22;8261;47.678;-122.174;2022-08-01T10:24:30;20.60;99.90
16305;DHT22;8261;47.678;-122.174;2022-08-01T10:27:04;20.70;99.90
16305;DHT22;8261;47.678;-122.174;2022-08-01T10:29:50;20.70;99.90
16305;DHT22;8261;47.678;-122.174;2022-08-01T10:32:35;20.70;99.90
16305;DHT22;8261;47.678;-122.174;2022-08-01T10:35:08;20.70;99.90
16305;DHT22;8261;47.678;-122.174;2022-08-01T10:38:04;20.70;99.90
16305;DHT22;8261;47.678;-122.174;2022-08-01T10:40:37;20.70;99.90
16305;DHT22;8261;47.678;-122.174;2022-08-01T10:43:10;20.70;99.90
16305;DHT22;8261;47.678;-122.174;2022-08-01T10:45:51;20.70;99.90
16305;DHT22;8261;47.678;-122.174;2022-08-01T10:48:28;20.80;99.90
16305;DHT22;8261;47.678;-122.174;2022-08-01T10:51:04;20.80;99.90
16305;DHT22;8261;47.678;-122.174;2022-08-01T10:53:51;20.80;99.90
16305;DHT22;8261;47.678;-122.174;2022-08-01T10:56:39;20.90;99.90
16305;DHT22;8261;47.678;-122.174;2022-08-01T10:59:15;20.80;99.90
16305;DHT22;8261;47.678;-122.174;2022-08-01T11:02:11;20.80;99.90
16305;DHT22;8261;47.678;-122.174;2022-08-01T11:05:02;20.80;99.90
16305;DHT22;8261;47.678;-122.174;2022-08-01T11:07:43;20.90;99.90
16305;DHT22;8261;47.678;-122.174;2022-08-01T11:10:24;21.00;99.90
16305;DHT22;8261;47.678;-122.174;2022-08-01T11:12:57;21.00;99.90
16305;DHT22;8261;47.678;-122.174;2022-08-01T11:15:31;21.00;99.90
16305;DHT22;8261;47.678;-122.174;2022-08-01T11:18:30;21.00;99.90
16305;DHT22;8261;47.678;-122.174;2022-08-01T11:21:05;21.00;99.90
16305;DHT22;8261;47.678;-122.174;2022-08-01T11:23:56;21.00;99.90
16305;DHT22;8261;47.678;-122.174;2022-08-01T11:26:30;21.00;99.90
16305;DHT22;8261;47.678;-122.174;2022-08-01T11:29:14;21.00;99.90
16305;DHT22;8261;47.678;-122.174;2022-08-01T11:31:49;20.80;99.90
16305;DHT22;8261;47.678;-122.174;2022-08-01T11:34:56;20.70;99.90
16305;DHT22;8261;47.678;-122.174;2022-08-01T11:37:35;20.60;99.90
16305;DHT22;8261;47.678;-122.174;2022-08-01T11:40:18;20.60;99.90
16305;DHT22;8261;47.678;-122.174;2022-08-01T11:43:18;20.60;99.90
16305;DHT22;8261;47.678;-122.174;2022-08-01T11:45:50;20.60;99.90
16305;DHT22;8261;47.678;-122.174;2022-08-01T11:48:25;20.70;99.90
16305;DHT22;8261;47.678;-122.174;2022-08-01T11:51:00;20.70;99.90
16305;DHT22;8261;47.678;-122.174;2022-08-01T11:53:31;20.80;99.90
16305;DHT22;8261;47.678;-122.174;2022-08-01T11:56:08;20.90;99.90
16305;DHT22;8261;47.678;-122.174;2022-08-01T11:58:44;20.80;99.90
16305;DHT22;8261;47.678;-122.174;2022-08-01T12:01:16;20.60;99.90
16305;DHT22;8261;47.678;-122.174;2022-08-01T12:03:56;20.60;99.90
16305;DHT22;8261;47.678;-122.174;2022-08-01T12:06:31;20.70;99.90
16305;DHT22;8261;47.678;-122.174;2022-08-01T12:09:16;20.70;99.90
16305;DHT22;8261;47.678;-122.174;2022-08-01T12:12:01;20.60;99.90
16305;DHT22;8261;47.678;-122.174;2022-08-01T12:14:33;20.60;99.90
16305;DHT22;8261;47.678;-122.174;2022-08-01T12:17:06;20.60;99.90
16305;DHT22;8261;47.678;-122.174;2022-08-01T12:19:38;20.60;99.90
16305;DHT22;8261;47.678;-122.174;2022-08-01T12:22:14;20.60;99.90
16305;DHT22;8261;47.678;-122.174;2022-08-01T12:24:46;20.60;99.90
16305;DHT22;8261;47.678;-122.174;2022-08-01T12:27:25;20.60;99.90
16305;DHT22;8261;47.678;-122.174;2022-08-01T12:29:58;20.60;99.90
16305;DHT22;8261;47.678;-122.174;2022-08-01T12:32:32;20.50;99.90
16305;DHT22;8261;47.678;-122.174;2022-08-01T12:35:06;20.60;99.90
16305;DHT22;8261;47.678;-122.174;2022-08-01T12:37:47;20.50;99.90
16305;DHT22;8261;47.678;-122.174;2022-08-01T12:40:21;20.40;99.90
16305;DHT22;8261;47.678;-122.174;2022-08-01T12:42:54;20.40;99.90
16305;DHT22;8261;47.678;-122.174;2022-08-01T12:45:27;20.30;99.90
16305;DHT22;8261;47.678;-122.174;2022-08-01T12:47:59;20.20;99.90
16305;DHT22;8261;47.678;-122.174;2022-08-01T12:50:32;20.10;99.90
16305;DHT22;8261;47.678;-122.174;2022-08-01T12:53:07;20.00;99.90
16305;DHT22;8261;47.678;-122.174;2022-08-01T12:55:47;20.00;99.90
16305;DHT22;8261;47.678;-122.174;2022-08-01T12:58:31;19.90;99.90
16305;DHT22;8261;47.678;-122.174;2022-08-01T13:01:05;20.00;99.90
16305;DHT22;8261;47.678;-122.174;2022-08-01T13:03:38;19.90;99.90
16305;DHT22;8261;47.678;-122.174;2022-08-01T13:06:12;19.80;99.90
16305;DHT22;8261;47.678;-122.174;2022-08-01T13:08:46;19.80;99.90
16305;DHT22;8261;47.678;-122.174;2022-08-01T13:11:18;19.80;99.90
16305;DHT22;8261;47.678;-122.174;2022-08-01T13:13:51;19.80;99.90
16305;DHT22;8261;47.678;-122.174;2022-08-01T13:16:25;19.80;99.90
16305;DHT22;8261;47.678;-122.174;2022-08-01T13:19:16;19.90;99.90
16305;DHT22;8261;47.678;-122.174;2022-08-01T13:21:56;19.90;99.90
16305;DHT22;8261;47.678;-122.174;2022-08-01T13:24:33;20.00;99.90
16305;DHT22;8261;47.678;-122.174;2022-08-01T13:27:05;20.00;99.90
16305;DHT22;8261;47.678;-122.174;2022-08-01T13:29:37;20.00;99.90
16305;DHT22;8261;47.678;-122.174;2022-08-01T13:32:14;19.90;99.90
16305;DHT22;8261;47.678;-122.174;2022-08-01T13:35:04;20.00;99.90
16305;DHT22;8261;47.678;-122.174;2022-08-01T13:37:36;20.00;99.90
16305;DHT22;8261;47.678;-122.174;2022-08-01T13:40:11;20.10;99.90
16305;DHT22;8261;47.678;-122.174;2022-08-01T13:42:42;20.10;99.90
16305;DHT22;8261;47.678;-122.174;2022-08-01T13:45:15;20.00;99.90
16305;DHT22;8261;47.678;-122.174;2022-08-01T13:47:49;20.00;99.90
16305;DHT22;8261;47.678;-122.174;2022-08-01T13:50:39;20.00;99.90
16305;DHT22;8261;47.678;-122.174;2022-08-01T13:53:20;20.00;99.90
16305;DHT22;8261;47.678;-122.174;2022-08-01T13:55:55;20.10;99.90
16305;DHT22;8261;47.678;-122.174;2022-08-01T13:58:30;20.10;99.90
16305;DHT22;8261;47.678;-122.174;2022-08-01T14:01:03;20.20;99.90
16305;DHT22;8261;47.678;-122.174;2022-08-01T14:03:39;20.00;99.90
16305;DHT22;8261;47.678;-122.174;2022-08-01T14:06:11;20.00;99.90
16305;DHT22;8261;47.678;-122.174;2022-08-01T14:08:43;20.00;99.90
16305;DHT22;8261;47.678;-122.174;2022-08-01T14:11:18;19.90;99.90
16305;DHT22;8261;47.678;-122.174;2022-08-01T14:13:57;20.00;99.90
16305;DHT22;8261;47.678;-122.174;2022-08-01T14:16:29;20.00;99.90
16305;DHT22;8261;47.678;-122.174;2022-08-01T14:19:03;20.00;99.90
16305;DHT22;8261;47.678;-122.174;2022-08-01T14:21:34;20.00;99.90
16305;DHT22;8261;47.678;-122.174;2022-08-01T14:24:07;19.90;99.90
16305;DHT22;8261;47.678;-122.174;2022-08-01T14:26:46;19.90;99.90
16305;DHT22;8261;47.678;-122.174;2022-08-01T14:29:17;19.90;99.90
16305;DHT22;8261;47.678;-122.174;2022-08-01T14:31:48;20.00;99.90
16305;DHT22;8261;47.678;-122.174;2022-08-01T14:34:22;19.80;99.90
16305;DHT22;8261;47.678;-122.174;2022-08-01T14:37:07;19.70;99.90
16305;DHT22;8261;47.678;-122.174;2022-08-01T14:39:38;19.80;99.90
16305;DHT22;8261;47.678;-122.174;2022-08-01T14:42:29;19.70;99.90
16305;DHT22;8261;47.678;-122.174;2022-08-01T14:45:02;19.80;99.90
16305;DHT22;8261;47.678;-122.174;2022-08-01T14:47:37;19.80;99.90
16305;DHT22;8261;47.678;-122.174;2022-08-01T14:50:12;19.90;99.90
16305;DHT22;8261;47.678;-122.174;2022-08-01T14:52:43;19.80;99.90
16305;DHT22;8261;47.678;-122.174;2022-08-01T14:55:15;19.70;99.90
16305;DHT22;8261;47.678;-122.174;2022-08-01T14:58:04;19.80;99.90
16305;DHT22;8261;47.678;-122.174;2022-08-01T15:00:38;20.10;99.90
16305;DHT22;8261;47.678;-122.174;2022-08-01T15:03:09;20.60;99.90
16305;DHT22;8261;47.678;-122.174;2022-08-01T15:05:43;20.60;99.90
16305;DHT22;8261;47.678;-122.174;2022-08-01T15:08:24;20.90;99.90
16305;DHT22;8261;47.678;-122.174;2022-08-01T15:11:21;21.30;99.90
16305;DHT22;8261;47.678;-122.174;2022-08-01T15:20:29;21.30;99.90
16305;DHT22;8261;47.678;-122.174;2022-08-01T15:23:11;21.50;99.90
16305;DHT22;8261;47.678;-122.174;2022-08-01T15:31:11;20.80;99.90
16305;DHT22;8261;47.678;-122.174;2022-08-01T15:33:54;20.80;99.90
16305;DHT22;8261;47.678;-122.174;2022-08-01T15:36:34;20.90;99.90
16305;DHT22;8261;47.678;-122.174;2022-08-01T15:39:10;21.20;99.90
16305;DHT22;8261;47.678;-122.174;2022-08-01T15:41:42;21.20;99.90
16305;DHT22;8261;47.678;-122.174;2022-08-01T15:44:27;21.20;99.90
16305;DHT22;8261;47.678;-122.174;2022-08-01T15:46:59;21.20;99.90
16305;DHT22;8261;47.678;-122.174;2022-08-01T15:49:40;21.10;99.90
16305;DHT22;8261;47.678;-122.174;2022-08-01T15:52:22;21.30;99.90
16305;DHT22;8261;47.678;-122.174;2022-08-01T15:55:06;21.50;99.90
16305;DHT22;8261;47.678;-122.174;2022-08-01T15:58:05;21.60;99.90
16305;DHT22;8261;47.678;-122.174;2022-08-01T16:01:43;21.60;99.90
16305;DHT22;8261;47.678;-122.174;2022-08-01T16:04:40;21.70;99.90
16305;DHT22;8261;47.678;-122.174;2022-08-01T16:07:15;21.80;99.90
16305;DHT22;8261;47.678;-122.174;2022-08-01T16:09:49;21.90;99.90
16305;DHT22;8261;47.678;-122.174;2022-08-01T16:12:20;22.10;99.90
16305;DHT22;8261;47.678;-122.174;2022-08-01T16:14:52;22.40;99.90
16305;DHT22;8261;47.678;-122.174;2022-08-01T16:17:23;22.60;99.90
16305;DHT22;8261;47.678;-122.174;2022-08-01T16:19:55;22.50;99.90
16305;DHT22;8261;47.678;-122.174;2022-08-01T16:22:26;22.70;99.90
16305;DHT22;8261;47.678;-122.174;2022-08-01T16:25:01;22.80;99.90
16305;DHT22;8261;47.678;-122.174;2022-08-01T16:27:33;22.90;99.90
16305;DHT22;8261;47.678;-122.174;2022-08-01T16:30:06;22.70;99.90
16305;DHT22;8261;47.678;-122.174;2022-08-01T16:32:38;22.50;99.90
16305;DHT22;8261;47.678;-122.174;2022-08-01T16:35:15;22.30;99.90
16305;DHT22;8261;47.678;-122.174;2022-08-01T16:38:04;22.30;99.90
16305;DHT22;8261;47.678;-122.174;2022-08-01T16:40:38;22.30;99.90
16305;DHT22;8261;47.678;-122.174;2022-08-01T16:43:15;22.20;99.90
16305;DHT22;8261;47.678;-122.174;2022-08-01T16:45:47;22.00;99.90